createdAt,value
2017-11-05T00:02:02.005Z,12.50
2017-11-05T00:04:30.125Z,12.50
2017-11-05T00:06:58.292Z,12.50
2017-11-05T00:09:26.419Z,12.60
2017-11-05T00:14:28.957Z,12.60
2017-11-05T00:16:57.454Z,12.50
2017-11-05T00:19:25.572Z,12.50
2017-11-05T00:21:53.713Z,12.40
2017-11-05T00:24:22.604Z,12.30
2017-11-05T00:26:51.525Z,12.30
2017-11-05T00:29:19.650Z,12.30
2017-11-05T00:31:47.796Z,12.20
2017-11-05T00:34:15.917Z,12.10
2017-11-05T00:36:44.829Z,12.10
2017-11-05T00:39:12.949Z,12.10
2017-11-05T00:41:41.097Z,12.20
2017-11-05T00:44:09.221Z,12.20
2017-11-05T00:46:38.147Z,12.30
2017-11-05T00:49:06.273Z,12.20
2017-11-05T00:51:34.425Z,12.10
2017-11-05T00:54:02.549Z,12.10
2017-11-05T00:56:30.697Z,12.20
2017-11-05T00:58:58.826Z,12.10
2017-11-05T01:01:27.011Z,12.00
2017-11-05T01:03:55.154Z,11.90
2017-11-05T01:06:23.302Z,12.00
2017-11-05T01:08:52.190Z,12.00
2017-11-05T01:11:21.110Z,12.00
2017-11-05T01:13:49.228Z,11.90
2017-11-05T01:16:17.379Z,11.90
2017-11-05T01:18:45.513Z,11.90
2017-11-05T01:21:14.417Z,11.90
2017-11-05T01:23:42.553Z,11.80
2017-11-05T01:26:10.706Z,11.90
2017-11-05T01:28:38.825Z,12.00
2017-11-05T01:31:07.761Z,12.10
2017-11-05T01:33:35.878Z,12.00
2017-11-05T01:36:04.757Z,12.10
2017-11-05T01:38:32.902Z,12.10
2017-11-05T01:41:01.022Z,12.20
2017-11-05T01:43:29.178Z,12.20
2017-11-05T01:45:58.086Z,12.30
2017-11-05T01:48:27.013Z,12.30
2017-11-05T01:50:55.133Z,12.30
2017-11-05T01:53:23.288Z,12.40
2017-11-05T01:55:51.416Z,12.50
2017-11-05T01:58:19.565Z,12.60
2017-11-05T02:00:48.457Z,12.50
2017-11-05T02:03:17.377Z,12.50
2017-11-05T02:05:45.492Z,12.50
2017-11-05T02:08:13.646Z,12.60
2017-11-05T02:10:41.769Z,12.50
2017-11-05T02:13:10.691Z,12.50
2017-11-05T02:15:38.810Z,12.50
2017-11-05T02:18:06.953Z,12.60
2017-11-05T02:20:35.120Z,12.90
2017-11-05T02:23:03.273Z,12.90
2017-11-05T02:25:31.409Z,13.00
2017-11-05T02:27:59.552Z,13.00
2017-11-05T02:30:27.678Z,13.10
2017-11-05T02:32:56.601Z,13.10
2017-11-05T02:35:24.742Z,13.10
2017-11-05T02:37:53.669Z,13.20
2017-11-05T02:40:21.803Z,13.20
2017-11-05T02:42:49.977Z,13.30
2017-11-05T02:45:18.116Z,13.30
2017-11-05T02:47:46.270Z,13.30
2017-11-05T02:50:14.425Z,13.30
2017-11-05T02:52:42.603Z,13.40
2017-11-05T02:55:10.752Z,13.30
2017-11-05T02:57:39.641Z,13.10
2017-11-05T03:00:08.565Z,13.00
2017-11-05T03:02:36.689Z,13.00
2017-11-05T03:05:05.611Z,12.90
2017-11-05T03:07:33.734Z,12.90
2017-11-05T03:10:01.902Z,12.90
2017-11-05T03:12:30.021Z,12.80
2017-11-05T03:14:58.176Z,12.70
2017-11-05T03:17:27.070Z,12.80
2017-11-05T03:19:55.992Z,12.80
2017-11-05T03:22:24.129Z,12.80
2017-11-05T03:24:53.062Z,12.70
2017-11-05T03:27:21.190Z,12.70
2017-11-05T03:29:49.321Z,12.70
2017-11-05T03:32:17.473Z,12.70
2017-11-05T03:34:45.605Z,12.60
2017-11-05T03:37:13.768Z,12.70
2017-11-05T03:39:41.890Z,12.60
2017-11-05T03:42:10.034Z,12.70
2017-11-05T03:44:38.923Z,12.70
2017-11-05T03:47:07.844Z,12.60
2017-11-05T03:49:36.006Z,12.60
2017-11-05T03:52:04.161Z,12.60
2017-11-05T03:54:32.296Z,12.60
2017-11-05T03:57:00.443Z,12.70
2017-11-05T03:59:28.569Z,12.60
2017-11-05T04:01:56.718Z,12.60
2017-11-05T04:04:24.835Z,12.70
2017-11-05T04:06:53.773Z,12.70
2017-11-05T04:09:21.902Z,12.70
2017-11-05T04:11:50.826Z,12.70
2017-11-05T04:14:18.946Z,12.70
2017-11-05T04:16:47.089Z,12.80
2017-11-05T04:19:15.221Z,12.80
2017-11-05T04:21:44.174Z,12.70
2017-11-05T04:24:12.318Z,12.70
2017-11-05T04:26:40.479Z,12.80
2017-11-05T04:29:08.623Z,12.70
2017-11-05T04:31:37.559Z,12.70
2017-11-05T04:34:05.680Z,12.70
2017-11-05T04:36:34.590Z,12.80
2017-11-05T04:39:03.512Z,12.80
2017-11-05T04:41:31.649Z,12.80
2017-11-05T04:44:00.562Z,13.20
2017-11-05T04:46:28.713Z,13.20
2017-11-05T04:48:57.637Z,13.20
2017-11-05T04:51:25.757Z,13.20
2017-11-05T04:53:53.909Z,13.20
2017-11-05T04:56:22.033Z,13.30
2017-11-05T04:58:50.188Z,13.40
2017-11-05T05:01:19.081Z,13.30
2017-11-05T05:03:47.990Z,13.40
2017-11-05T05:06:16.144Z,13.40
2017-11-05T05:08:45.067Z,13.30
2017-11-05T05:11:13.193Z,13.30
2017-11-05T05:13:41.365Z,13.20
2017-11-05T05:16:09.495Z,13.10
2017-11-05T05:18:37.665Z,13.10
2017-11-05T05:21:05.794Z,13.00
2017-11-05T05:23:33.943Z,12.90
2017-11-05T05:26:02.075Z,12.80
2017-11-05T05:28:30.234Z,12.80
2017-11-05T05:30:59.115Z,12.70
2017-11-05T05:33:28.025Z,12.70
2017-11-05T05:35:56.151Z,12.60
2017-11-05T05:38:24.307Z,12.60
2017-11-05T05:40:52.442Z,12.50
2017-11-05T05:43:20.595Z,12.50
2017-11-05T05:45:49.489Z,12.50
2017-11-05T05:48:18.413Z,12.30
2017-11-05T05:50:46.553Z,12.30
2017-11-05T05:53:15.470Z,12.10
2017-11-05T05:55:43.602Z,12.10
2017-11-05T05:58:11.780Z,12.10
2017-11-05T06:00:39.906Z,12.10
2017-11-05T06:03:08.032Z,12.00
2017-11-05T06:05:36.176Z,12.00
2017-11-05T06:08:04.305Z,12.00
2017-11-05T06:10:32.458Z,11.90
2017-11-05T06:13:01.349Z,12.00
2017-11-05T06:15:30.265Z,12.00
2017-11-05T06:17:58.400Z,12.00
2017-11-05T06:20:27.378Z,12.00
2017-11-05T06:22:55.513Z,12.00
2017-11-05T06:25:23.671Z,12.10
2017-11-05T06:27:51.793Z,12.10
2017-11-05T06:30:19.942Z,12.00
2017-11-05T06:32:48.066Z,12.10
2017-11-05T06:35:16.210Z,12.10
2017-11-05T06:37:44.329Z,12.20
2017-11-05T06:40:13.242Z,12.20
2017-11-05T06:42:41.361Z,12.20
2017-11-05T06:45:09.529Z,12.10
2017-11-05T06:47:37.653Z,12.10
2017-11-05T06:50:05.790Z,12.00
2017-11-05T06:52:33.937Z,12.10
2017-11-05T06:55:02.110Z,12.20
2017-11-05T06:57:30.265Z,12.20
2017-11-05T06:59:58.396Z,12.20
2017-11-05T07:02:27.321Z,12.20
2017-11-05T07:04:55.456Z,12.20
2017-11-05T07:07:24.386Z,12.20
2017-11-05T07:09:52.523Z,12.20
2017-11-05T07:12:21.438Z,12.30
2017-11-05T07:14:49.561Z,12.30
2017-11-05T07:17:17.709Z,12.30
2017-11-05T07:19:45.841Z,12.30
2017-11-05T07:22:14.784Z,12.30
2017-11-05T07:24:42.908Z,12.30
2017-11-05T07:27:11.821Z,12.30
2017-11-05T07:29:39.954Z,12.30
2017-11-05T07:32:08.098Z,12.30
2017-11-05T07:34:36.214Z,12.30
2017-11-05T07:37:05.124Z,12.30
2017-11-05T07:39:33.233Z,12.30
2017-11-05T07:42:01.381Z,12.30
2017-11-05T07:44:29.493Z,12.20
2017-11-05T07:46:57.630Z,12.20
2017-11-05T07:49:25.752Z,12.30
2017-11-05T07:51:53.938Z,12.30
2017-11-05T07:54:23.559Z,12.40
2017-11-05T07:56:51.721Z,12.40
2017-11-05T07:59:20.622Z,12.30
2017-11-05T08:01:49.498Z,12.30
2017-11-05T08:04:18.397Z,12.40
2017-11-05T08:06:47.284Z,12.30
2017-11-05T08:09:16.202Z,12.30
2017-11-05T08:11:44.322Z,12.30
2017-11-05T08:14:12.468Z,12.30
2017-11-05T08:16:40.585Z,12.30
2017-11-05T08:19:08.721Z,12.30
2017-11-05T08:21:36.866Z,12.20
2017-11-05T08:24:05.201Z,12.20
2017-11-05T08:26:34.214Z,12.20
2017-11-05T08:29:02.634Z,12.30
2017-11-05T08:31:30.750Z,12.20
2017-11-05T08:33:58.949Z,12.30
2017-11-05T08:36:27.146Z,12.30
2017-11-05T08:38:55.287Z,12.40
2017-11-05T08:41:24.159Z,12.40
2017-11-05T08:43:52.294Z,12.40
2017-11-05T08:46:20.400Z,12.40
2017-11-05T08:48:48.547Z,12.40
2017-11-05T08:51:16.652Z,12.40
2017-11-05T08:53:44.798Z,12.40
2017-11-05T08:56:12.913Z,12.50
2017-11-05T08:58:41.834Z,12.60
2017-11-05T09:01:10.005Z,12.60
2017-11-05T09:03:39.046Z,12.60
2017-11-05T09:06:07.321Z,12.70
2017-11-05T09:08:35.431Z,12.60
2017-11-05T09:11:04.338Z,12.70
2017-11-05T09:13:33.306Z,12.60
2017-11-05T09:16:01.549Z,12.70
2017-11-05T09:18:29.658Z,12.70
2017-11-05T09:20:58.569Z,12.80
2017-11-05T09:23:26.677Z,12.80
2017-11-05T09:25:54.820Z,12.80
2017-11-05T09:28:22.946Z,12.80
2017-11-05T09:30:51.085Z,12.90
2017-11-05T09:33:19.197Z,12.90
2017-11-05T09:35:47.344Z,12.90
2017-11-05T09:38:15.460Z,12.90
2017-11-05T09:40:44.365Z,12.80
2017-11-05T09:43:12.473Z,12.80
2017-11-05T09:45:40.613Z,12.80
2017-11-05T09:48:08.896Z,12.80
2017-11-05T09:50:37.039Z,12.80
2017-11-05T09:53:05.922Z,12.60
2017-11-05T09:55:34.068Z,12.60
2017-11-05T09:58:02.193Z,12.60
2017-11-05T10:00:31.109Z,12.60
2017-11-05T10:02:59.225Z,12.60
2017-11-05T10:05:27.360Z,12.70
2017-11-05T10:07:55.484Z,12.60
2017-11-05T10:10:23.826Z,12.60
2017-11-05T10:12:52.112Z,12.70
2017-11-05T10:15:20.349Z,12.80
2017-11-05T10:17:48.492Z,12.80
2017-11-05T10:20:16.705Z,12.90
2017-11-05T10:22:44.851Z,12.90
2017-11-05T10:25:13.734Z,12.90
2017-11-05T10:27:42.648Z,12.90
2017-11-05T10:30:10.764Z,12.90
2017-11-05T10:32:38.905Z,12.90
2017-11-05T10:35:07.022Z,12.90
2017-11-05T10:37:35.188Z,12.90
2017-11-05T10:40:03.313Z,12.90
2017-11-05T10:42:31.549Z,12.90
2017-11-05T10:45:00.368Z,13.00
2017-11-05T10:47:30.014Z,13.00
2017-11-05T10:49:58.130Z,12.90
2017-11-05T10:52:27.033Z,12.70
2017-11-05T10:54:55.908Z,12.50
2017-11-05T10:57:24.040Z,12.50
2017-11-05T10:59:52.165Z,12.40
2017-11-05T11:02:21.065Z,12.30
2017-11-05T11:04:49.943Z,12.20
2017-11-05T11:07:18.860Z,12.20
2017-11-05T11:09:46.973Z,12.20
2017-11-05T11:12:15.109Z,12.20
2017-11-05T11:14:43.234Z,12.10
2017-11-05T11:17:11.372Z,12.10
2017-11-05T11:19:39.498Z,12.10
2017-11-05T11:22:07.635Z,12.00
2017-11-05T11:24:35.768Z,12.10
2017-11-05T11:27:03.890Z,12.10
2017-11-05T11:29:32.024Z,12.20
2017-11-05T11:32:00.139Z,12.10
2017-11-05T11:34:28.274Z,12.10
2017-11-05T11:36:56.404Z,12.10
2017-11-05T11:39:24.537Z,12.10
2017-11-05T11:41:52.648Z,12.20
2017-11-05T11:44:20.789Z,12.10
2017-11-05T11:46:48.899Z,12.10
2017-11-05T11:49:17.038Z,12.10
2017-11-05T11:51:45.152Z,12.00
2017-11-05T11:54:14.055Z,12.00
2017-11-05T11:56:42.171Z,12.00
2017-11-05T11:59:10.313Z,12.00
2017-11-05T12:01:38.442Z,12.00
2017-11-05T12:04:06.582Z,12.00
2017-11-05T12:06:34.709Z,11.90
2017-11-05T12:09:03.708Z,11.80
2017-11-05T12:11:32.614Z,11.90
2017-11-05T12:14:00.746Z,11.80
2017-11-05T12:16:28.862Z,11.80
2017-11-05T12:18:57.000Z,11.80
2017-11-05T12:21:25.121Z,11.60
2017-11-05T12:23:53.286Z,11.70
2017-11-05T12:26:21.397Z,11.70
2017-11-05T12:28:49.521Z,11.70
2017-11-05T12:31:17.656Z,11.70
2017-11-05T12:33:45.771Z,11.80
2017-11-05T12:36:13.934Z,11.80
2017-11-05T12:38:42.835Z,12.00
2017-11-05T12:41:10.977Z,12.00
2017-11-05T12:43:39.091Z,12.00
2017-11-05T12:46:07.237Z,12.10
2017-11-05T12:48:36.113Z,12.10
2017-11-05T12:51:04.263Z,12.10
2017-11-05T12:53:32.385Z,12.10
2017-11-05T12:56:00.525Z,12.30
2017-11-05T12:58:28.639Z,12.30
2017-11-05T13:00:56.787Z,12.20
2017-11-05T13:03:26.595Z,12.00
2017-11-05T13:05:54.741Z,12.00
2017-11-05T13:08:22.865Z,12.10
2017-11-05T13:10:51.001Z,12.00
2017-11-05T13:13:19.117Z,12.10
2017-11-05T13:15:47.259Z,12.10
2017-11-05T13:18:15.369Z,12.00
2017-11-05T13:20:43.513Z,11.90
2017-11-05T13:23:12.401Z,11.70
2017-11-05T13:25:41.326Z,11.60
2017-11-05T13:28:09.447Z,11.60
2017-11-05T13:30:37.557Z,11.60
2017-11-05T13:33:05.688Z,11.70
2017-11-05T13:35:33.810Z,11.80
2017-11-05T13:38:01.977Z,11.80
2017-11-05T13:40:30.095Z,11.80
2017-11-05T13:42:58.224Z,11.70
2017-11-05T13:45:26.337Z,11.80
2017-11-05T13:47:54.493Z,11.70
2017-11-05T13:50:22.608Z,11.70
2017-11-05T13:52:50.753Z,11.70
2017-11-05T13:55:18.866Z,11.70
2017-11-05T13:57:47.809Z,11.60
2017-11-05T14:00:15.933Z,11.60
2017-11-05T14:02:44.842Z,11.60
2017-11-05T14:05:12.957Z,11.60
2017-11-05T14:07:41.109Z,11.50
2017-11-05T14:10:09.239Z,11.50
2017-11-05T14:12:37.375Z,11.50
2017-11-05T14:15:05.497Z,11.50
2017-11-05T14:17:34.413Z,11.40
2017-11-05T14:20:02.541Z,11.40
2017-11-05T14:22:30.684Z,11.30
2017-11-05T14:24:58.800Z,11.30
2017-11-05T14:27:27.705Z,11.20
2017-11-05T14:29:55.822Z,11.20
2017-11-05T14:32:23.961Z,11.20
2017-11-05T14:34:52.075Z,11.10
2017-11-05T14:37:20.188Z,11.10
2017-11-05T14:39:49.099Z,11.10
2017-11-05T14:42:17.483Z,11.10
2017-11-05T14:44:45.744Z,11.10
2017-11-05T14:47:14.622Z,11.00
2017-11-05T14:49:43.533Z,11.00
2017-11-05T14:52:11.769Z,11.00
2017-11-05T14:54:39.949Z,10.90
2017-11-05T14:57:08.088Z,10.90
2017-11-05T14:59:36.847Z,10.80
2017-11-05T15:02:05.723Z,10.80
2017-11-05T15:07:01.187Z,10.80
2017-11-05T15:09:29.344Z,10.70
2017-11-05T15:11:58.226Z,10.60
2017-11-05T15:14:27.126Z,10.70
2017-11-05T15:16:56.005Z,10.60
2017-11-05T15:19:24.142Z,10.60
2017-11-05T15:21:52.282Z,10.60
2017-11-05T15:24:20.436Z,10.60
2017-11-05T15:26:49.337Z,10.50
2017-11-05T15:29:17.471Z,10.50
2017-11-05T15:31:45.593Z,10.50
2017-11-05T15:34:13.719Z,10.40
2017-11-05T15:36:41.834Z,10.30
2017-11-05T15:39:09.980Z,10.30
2017-11-05T15:41:38.108Z,10.30
2017-11-05T15:44:06.255Z,10.20
2017-11-05T15:46:34.367Z,10.20
2017-11-05T15:49:02.495Z,10.30
2017-11-05T15:51:30.634Z,10.30
2017-11-05T15:53:58.758Z,10.30
2017-11-05T15:56:26.899Z,10.30
2017-11-05T15:58:55.784Z,10.40
2017-11-05T16:01:24.710Z,10.40
2017-11-05T16:03:52.833Z,10.40
2017-11-05T16:06:21.064Z,10.30
2017-11-05T16:08:49.205Z,10.30
2017-11-05T16:11:18.125Z,10.20
2017-11-05T16:13:46.242Z,10.20
2017-11-05T16:16:14.360Z,10.20
2017-11-05T16:18:42.538Z,10.10
2017-11-05T16:21:10.673Z,10.20
2017-11-05T16:23:38.790Z,10.20
2017-11-05T16:26:06.938Z,10.20
2017-11-05T16:28:35.058Z,10.20
2017-11-05T16:31:03.204Z,10.10
2017-11-05T16:33:31.323Z,10.10
2017-11-05T16:35:59.473Z,10.10
2017-11-05T16:38:27.598Z,10.10
2017-11-05T16:40:56.502Z,10.00
2017-11-05T16:43:24.625Z,10.00
2017-11-05T16:45:52.797Z,10.00
2017-11-05T16:48:20.908Z,10.00
2017-11-05T16:50:49.809Z,10.00
2017-11-05T16:53:18.764Z,10.00
2017-11-05T16:55:46.893Z,10.00
2017-11-05T16:58:15.071Z,10.00
2017-11-05T17:00:43.214Z,10.00
2017-11-05T17:03:12.134Z,9.90
2017-11-05T17:05:40.243Z,9.90
2017-11-05T17:08:08.362Z,9.90
2017-11-05T17:10:37.250Z,10.00
2017-11-05T17:13:06.143Z,9.90
2017-11-05T17:15:34.265Z,9.90
2017-11-05T17:18:02.406Z,9.90
2017-11-05T17:20:30.560Z,9.90
2017-11-05T17:22:59.454Z,9.90
2017-11-05T17:25:28.359Z,10.00
2017-11-05T17:27:56.490Z,10.00
2017-11-05T17:30:24.602Z,10.00
2017-11-05T17:32:52.752Z,10.00
2017-11-05T17:35:21.643Z,9.90
2017-11-05T17:37:50.543Z,9.90
2017-11-05T17:40:19.408Z,9.90
2017-11-05T17:42:47.546Z,9.90
2017-11-05T17:45:15.675Z,9.90
2017-11-05T17:47:44.599Z,9.80
2017-11-05T17:50:12.724Z,9.80
2017-11-05T17:52:40.865Z,9.80
2017-11-05T17:55:08.989Z,9.80
2017-11-05T17:57:38.919Z,9.70
2017-11-05T18:00:07.042Z,9.70
2017-11-05T18:02:38.145Z,9.70
2017-11-05T18:05:06.258Z,9.70
2017-11-05T18:07:34.406Z,9.70
2017-11-05T18:10:02.522Z,9.70
2017-11-05T18:12:31.442Z,9.70
2017-11-05T18:17:34.031Z,9.60
2017-11-05T18:20:02.920Z,9.30
2017-11-05T18:22:31.802Z,9.30
2017-11-05T18:25:00.709Z,9.40
2017-11-05T18:27:28.855Z,9.40
2017-11-05T18:29:57.865Z,9.40
2017-11-05T18:32:26.743Z,9.40
2017-11-05T18:34:55.649Z,9.40
2017-11-05T18:37:23.813Z,9.40
2017-11-05T18:39:53.183Z,9.40
2017-11-05T18:42:21.298Z,9.40
2017-11-05T18:44:50.204Z,9.40
2017-11-05T18:47:18.340Z,9.40
2017-11-05T18:49:46.992Z,9.50
2017-11-05T18:52:15.152Z,9.60
2017-11-05T18:54:43.302Z,9.50
2017-11-05T18:57:11.632Z,9.40
2017-11-05T18:59:40.214Z,9.50
2017-11-05T19:02:08.335Z,9.50
2017-11-05T19:04:36.961Z,9.40
2017-11-05T19:07:05.115Z,9.40
2017-11-05T19:09:34.579Z,9.30
2017-11-05T19:12:03.479Z,9.40
2017-11-05T19:14:32.394Z,9.40
2017-11-05T19:17:00.541Z,9.40
2017-11-05T19:19:30.081Z,9.20
2017-11-05T19:21:58.415Z,9.20
2017-11-05T19:24:26.525Z,9.20
2017-11-05T19:26:55.369Z,9.20
2017-11-05T19:29:23.489Z,9.10
2017-11-05T19:31:52.189Z,9.20
2017-11-05T19:34:20.298Z,9.20
2017-11-05T19:36:48.609Z,9.30
2017-11-05T19:39:17.101Z,9.20
2017-11-05T19:41:45.269Z,9.30
2017-11-05T19:44:14.676Z,9.40
2017-11-05T19:46:43.085Z,9.40
2017-11-05T19:49:11.426Z,9.40
2017-11-05T19:51:39.576Z,9.40
2017-11-05T19:54:07.698Z,9.40
2017-11-05T19:56:35.843Z,9.40
2017-11-05T19:59:04.640Z,9.40
2017-11-05T20:01:32.766Z,9.40
2017-11-05T20:04:01.812Z,9.40
2017-11-05T20:06:30.196Z,9.40
2017-11-05T20:08:58.998Z,9.10
2017-11-05T20:11:27.110Z,9.00
2017-11-05T20:13:56.041Z,9.20
2017-11-05T20:16:24.156Z,9.20
2017-11-05T20:18:52.302Z,9.20
2017-11-05T20:21:20.433Z,9.30
2017-11-05T20:23:49.795Z,9.30
2017-11-05T20:26:21.448Z,9.30
2017-11-05T20:28:49.766Z,9.40
2017-11-05T20:31:18.871Z,9.30
2017-11-05T20:33:47.779Z,9.30
2017-11-05T20:36:16.034Z,9.30
2017-11-05T20:38:44.926Z,9.50
2017-11-05T20:41:13.806Z,9.50
2017-11-05T20:43:41.955Z,9.40
2017-11-05T20:46:10.699Z,9.50
2017-11-05T20:48:40.061Z,9.50
2017-11-05T20:51:08.178Z,9.40
2017-11-05T20:53:36.313Z,9.40
2017-11-05T20:56:04.425Z,9.40
2017-11-05T20:58:33.629Z,9.30
2017-11-05T21:01:04.017Z,9.20
2017-11-05T21:03:32.137Z,9.20
2017-11-05T21:06:00.665Z,9.30
2017-11-05T21:08:29.543Z,9.20
2017-11-05T21:10:58.984Z,9.10
2017-11-05T21:13:27.109Z,9.10
2017-11-05T21:15:55.248Z,9.10
2017-11-05T21:18:23.475Z,9.20
2017-11-05T21:20:51.625Z,9.10
2017-11-05T21:23:19.738Z,9.10
2017-11-05T21:25:48.645Z,9.20
2017-11-05T21:28:16.764Z,9.10
2017-11-05T21:30:44.926Z,9.10
2017-11-05T21:33:13.038Z,9.10
2017-11-05T21:35:41.168Z,8.90
2017-11-05T21:38:09.290Z,8.70
2017-11-05T21:40:37.419Z,8.70
2017-11-05T21:43:05.516Z,8.70
2017-11-05T21:45:33.638Z,8.70
2017-11-05T21:48:01.745Z,8.70
2017-11-05T21:50:29.879Z,8.70
2017-11-05T21:52:58.086Z,8.70
2017-11-05T21:55:26.360Z,8.60
2017-11-05T21:57:54.499Z,8.60
2017-11-05T22:00:23.378Z,8.60
2017-11-05T22:02:51.535Z,8.60
2017-11-05T22:05:19.645Z,8.50
2017-11-05T22:07:47.839Z,8.60
2017-11-05T22:10:15.962Z,8.60
2017-11-05T22:12:44.108Z,8.50
2017-11-05T22:15:12.223Z,8.60
2017-11-05T22:17:41.174Z,8.70
2017-11-05T22:20:09.341Z,8.70
2017-11-05T22:22:38.293Z,8.80
2017-11-05T22:25:06.402Z,8.70
2017-11-05T22:27:34.562Z,8.80
2017-11-05T22:30:02.723Z,8.80
2017-11-05T22:32:30.865Z,8.80
2017-11-05T22:34:59.756Z,8.70
2017-11-05T22:37:28.692Z,8.70
2017-11-05T22:39:56.795Z,8.70
2017-11-05T22:42:24.950Z,8.70
2017-11-05T22:44:53.063Z,8.70
2017-11-05T22:47:21.963Z,8.70
2017-11-05T22:49:50.838Z,8.70
2017-11-05T22:52:18.981Z,8.70
2017-11-05T22:54:47.137Z,8.70
2017-11-05T22:57:15.246Z,8.80
2017-11-05T22:59:43.377Z,8.80
2017-11-05T23:02:11.481Z,8.70
2017-11-05T23:04:39.623Z,8.70
2017-11-05T23:07:07.723Z,8.80
2017-11-05T23:09:35.843Z,8.80
2017-11-05T23:12:04.721Z,8.70
2017-11-05T23:14:33.617Z,8.60
2017-11-05T23:17:02.483Z,8.60
2017-11-05T23:19:30.616Z,8.50
2017-11-05T23:21:59.597Z,8.50
2017-11-05T23:24:27.731Z,8.40
2017-11-05T23:26:55.829Z,8.40
2017-11-05T23:29:24.724Z,8.30
2017-11-05T23:31:53.605Z,8.20
2017-11-05T23:34:21.738Z,8.20
2017-11-05T23:36:49.857Z,8.20
2017-11-05T23:39:18.770Z,8.10
2017-11-05T23:41:46.881Z,8.10
2017-11-05T23:44:15.034Z,8.20
2017-11-05T23:46:43.159Z,8.30
2017-11-05T23:49:11.274Z,8.30
2017-11-05T23:51:39.419Z,8.40
2017-11-05T23:54:08.309Z,8.40
2017-11-05T23:56:37.215Z,8.40
2017-11-05T23:59:05.326Z,8.30
